F/V Berriz Patxiku — ECES — position and weather

sailwx.info

Track history (hours):
 
Tides and Currents Weather Stations Pressure Air Temp Water Temp Dewpoint Dewpoint Depression Visibility Wind Speed Wind Dir Waves Ship Positions

F/V Berriz Patxiku

Last reported at 2016-Apr-22 07:19 UTC. Time now 2016-May-03 08:47 UTC.
Position N 43°28' W 001°54'.
Warning: this ship's position is 11 days out of date.

Length 30 m.

Type: Fishing. MMSI: 224106260.

Date/timePositionNaut miles runAvg speedWind from/ knotsBaromVisibWave heightAir tempDewpointWater temp
2016-Apr-22 07:19N 43°28' W 001°54'3 3.7
2016-Apr-22 06:28N 43°31' W 001°51'0 0.1
2016-Apr-22 03:33N 43°31' W 001°51'19 0.8
2016-Apr-21 03:17N 43°19' W 002°12'13 6.9
2016-Apr-21 01:26N 43°31' W 002°07'2 1.5
2016-Apr-21 00:13N 43°33' W 002°08'0 0.5
2016-Apr-20 23:33N 43°33' W 002°07'8 0.3
2016-Apr-20 00:22N 43°32' W 001°57'3 1.5
2016-Apr-19 22:32N 43°34' W 001°54'0 0.4
2016-Apr-19 21:31N 43°33' W 001°53'4 0.1
2016-Apr-18 13:28N 43°30' W 001°52'  
2016-Apr-15 09:08N 43°30' W 002°05'3 4.4
2016-Apr-15 08:33N 43°28' W 002°04'0 0.0
2016-Apr-15 07:33N 43°28' W 002°04'9 6.3
2016-Apr-15 06:07N 43°24' W 002°15'2 3.7
2016-Apr-15 05:33N 43°23' W 002°18'8 0.9
2016-Apr-14 20:29N 43°22' W 002°07'3 0.9
2016-Apr-14 17:07N 43°21' W 002°04'10 0.9
2016-Apr-14 06:16N 43°30' W 001°59'3 4.3
2016-Apr-14 05:33N 43°32' W 001°56'1 1.2
2016-Apr-14 04:31N 43°31' W 001°56'5 4.8
2016-Apr-14 03:33N 43°32' W 001°50'3 2.7
2016-Apr-14 02:31N 43°33' W 001°47'4 3.7
2016-Apr-14 01:32N 43°33' W 001°52'1010.1
2016-Apr-14 00:31N 43°34' W 002°06'13 1.6
2016-Apr-13 16:26N 43°23' W 002°14'4 5.0
2016-Apr-13 15:33N 43°18' W 002°12'0 0.0
2016-Apr-13 14:33N 43°18' W 002°12'  
Track history (hours):
 
Tides and Currents Weather Stations Pressure Air Temp Water Temp Dewpoint Dewpoint Depression Visibility Wind Speed Wind Dir Waves Ship Positions

F/V Berriz Patxiku

Last reported at 2016-Apr-22 07:19 UTC. Time now 2016-May-03 08:47 UTC.
Position N 43°28' W 001°54'.
Warning: this ship's position is 11 days out of date.

Length 30 m.

Type: Fishing. MMSI: 224106260.

Date/timePositionNaut miles runAvg speedWind from/ knotsBaromVisibWave heightAir tempDewpointWater temp
2016-Apr-22 07:19N 43°28' W 001°54'3 3.7
2016-Apr-22 06:28N 43°31' W 001°51'0 0.1
2016-Apr-22 03:33N 43°31' W 001°51'19 0.8
2016-Apr-21 03:17N 43°19' W 002°12'13 6.9
2016-Apr-21 01:26N 43°31' W 002°07'2 1.5
2016-Apr-21 00:13N 43°33' W 002°08'0 0.5
2016-Apr-20 23:33N 43°33' W 002°07'8 0.3
2016-Apr-20 00:22N 43°32' W 001°57'3 1.5
2016-Apr-19 22:32N 43°34' W 001°54'0 0.4
2016-Apr-19 21:31N 43°33' W 001°53'4 0.1
2016-Apr-18 13:28N 43°30' W 001°52'  
2016-Apr-15 09:08N 43°30' W 002°05'3 4.4
2016-Apr-15 08:33N 43°28' W 002°04'0 0.0
2016-Apr-15 07:33N 43°28' W 002°04'9 6.3
2016-Apr-15 06:07N 43°24' W 002°15'2 3.7
2016-Apr-15 05:33N 43°23' W 002°18'8 0.9
2016-Apr-14 20:29N 43°22' W 002°07'3 0.9
2016-Apr-14 17:07N 43°21' W 002°04'10 0.9
2016-Apr-14 06:16N 43°30' W 001°59'3 4.3
2016-Apr-14 05:33N 43°32' W 001°56'1 1.2
2016-Apr-14 04:31N 43°31' W 001°56'5 4.8
2016-Apr-14 03:33N 43°32' W 001°50'3 2.7
2016-Apr-14 02:31N 43°33' W 001°47'4 3.7
2016-Apr-14 01:32N 43°33' W 001°52'1010.1
2016-Apr-14 00:31N 43°34' W 002°06'13 1.6
2016-Apr-13 16:26N 43°23' W 002°14'4 5.0
2016-Apr-13 15:33N 43°18' W 002°12'0 0.0
2016-Apr-13 14:33N 43°18' W 002°12'  

Dump ship's entire track history